Time;durP1;ratioP1;P1;durP2;ratioP2;P2;SDS_P1;SDS_P2;PMS_P1;PMS_P2;Temp;Humidity;BMP_temperature;BMP_pressure;BME280_temperature;BME280_humidity;BME280_pressure;Samples;Min_cycle;Max_cycle;Signal;HPM_P1;HPM_P2
2022/12/03 00:02:06;;;;;;;17.98;12.23;;;;;;;8.22;67.17;102540.34;4939249;28;119160;-78
2022/12/03 00:04:32;;;;;;;17.25;11.45;;;;;;;8.25;66.94;102550.50;4932654;28;119330;-79
2022/12/03 00:06:57;;;;;;;17.25;11.48;;;;;;;8.21;66.83;102532.53;4936383;28;119270;-78
2022/12/03 00:09:23;;;;;;;15.23;10.90;;;;;;;8.24;65.96;102545.41;4946606;28;119750;-77
2022/12/03 00:11:49;;;;;;;15.60;10.80;;;;;;;8.24;66.85;102542.69;4943224;28;119392;-77
2022/12/03 00:14:15;;;;;;;15.52;11.05;;;;;;;8.23;65.97;102535.66;4951811;28;119197;-77
2022/12/03 00:16:40;;;;;;;17.13;10.70;;;;;;;8.23;65.70;102549.31;4950274;28;119563;-79
2022/12/03 00:19:06;;;;;;;12.25;9.48;;;;;;;8.21;65.64;102538.00;4945061;28;119422;-78
2022/12/03 00:21:33;;;;;;;14.45;10.20;;;;;;;8.21;65.10;102529.78;4941259;28;119392;-79
2022/12/03 00:23:58;;;;;;;14.20;10.27;;;;;;;8.18;64.85;102517.69;4955123;28;120401;-78
2022/12/03 00:26:24;;;;;;;14.32;10.25;;;;;;;8.19;64.95;102529.41;4945912;28;120510;-77
2022/12/03 00:28:51;;;;;;;14.38;9.60;;;;;;;8.18;65.71;102528.63;4941007;28;122016;-79
2022/12/03 00:31:17;;;;;;;14.60;10.45;;;;;;;8.18;65.55;102519.63;4937475;28;119674;-78
2022/12/03 00:33:42;;;;;;;15.98;11.40;;;;;;;8.21;65.86;102532.53;4941493;28;119246;-77
2022/12/03 00:36:08;;;;;;;14.88;10.68;;;;;;;8.14;65.65;102524.31;4932109;28;119099;-77
2022/12/03 00:38:34;;;;;;;14.82;10.65;;;;;;;8.19;65.48;102541.13;4946289;28;119456;-77
2022/12/03 00:41:00;;;;;;;13.68;10.55;;;;;;;8.20;65.59;102523.53;4942498;28;119585;-77
2022/12/03 00:43:25;;;;;;;11.88;9.43;;;;;;;8.18;64.91;102519.63;4948698;28;119872;-78
2022/12/03 00:45:51;;;;;;;15.60;9.15;;;;;;;8.16;64.77;102530.97;4948135;28;119231;-78
2022/12/03 00:48:17;;;;;;;12.50;8.68;;;;;;;8.12;64.29;102523.94;4942433;28;119674;-79
2022/12/03 00:50:43;;;;;;;12.23;8.52;;;;;;;8.13;63.99;102537.22;4939032;28;119333;-77
2022/12/03 00:53:08;;;;;;;12.82;8.55;;;;;;;8.10;63.37;102534.47;4951677;28;119186;-77
2022/12/03 00:55:34;;;;;;;11.43;8.15;;;;;;;8.05;63.70;102521.97;4945234;28;119351;-76
2022/12/03 00:58:00;;;;;;;13.50;8.00;;;;;;;7.97;63.11;102532.09;4944441;28;119856;-77
2022/12/03 01:00:26;;;;;;;13.05;7.93;;;;;;;7.98;62.98;102514.53;4948105;28;119660;-78
2022/12/03 01:02:52;;;;;;;12.52;7.55;;;;;;;8.03;63.09;102521.56;4939932;28;119967;-78
2022/12/03 01:05:19;;;;;;;9.75;6.72;;;;;;;7.93;62.77;102509.44;4950111;28;119351;-77
2022/12/03 01:07:45;;;;;;;11.07;6.78;;;;;;;7.92;62.32;102509.81;4939335;28;119784;-78
2022/12/03 01:10:12;;;;;;;12.90;6.70;;;;;;;7.92;61.82;102524.28;4951548;28;119766;-77
2022/12/03 01:12:38;;;;;;;9.80;6.32;;;;;;;7.88;61.79;102520.75;4946846;28;119461;-78
2022/12/03 01:15:05;;;;;;;9.25;6.35;;;;;;;7.84;61.12;102516.47;4947714;28;119372;-77
2022/12/03 01:17:31;;;;;;;9.57;6.22;;;;;;;7.79;61.08;102523.06;4948238;28;119289;-76
2022/12/03 01:19:58;;;;;;;9.32;6.30;;;;;;;7.72;61.03;102511.34;4947416;28;119521;-77
2022/12/03 01:22:24;;;;;;;10.15;6.25;;;;;;;7.63;61.40;102509.75;4934700;28;120229;-77
2022/12/03 01:24:50;;;;;;;11.75;7.03;;;;;;;7.67;61.78;102512.50;4940514;28;120447;-78
2022/12/03 01:27:16;;;;;;;10.82;6.45;;;;;;;7.63;62.21;102515.22;4944818;28;119345;-77
2022/12/03 01:29:41;;;;;;;10.48;6.78;;;;;;;7.66;61.67;102528.09;4940894;28;119100;-77
2022/12/03 01:32:20;;;;;;;10.93;7.15;;;;;;;7.62;61.98;102507.41;4955908;28;119787;-76
2022/12/03 01:34:52;;;;;;;10.60;7.05;;;;;;;7.66;61.84;102519.13;4935590;28;120375;-78
2022/12/03 01:37:20;;;;;;;10.77;7.35;;;;;;;7.63;61.72;102514.44;4942479;28;119300;-77
2022/12/03 01:39:46;;;;;;;10.57;7.28;;;;;;;7.66;61.98;102516.41;4945835;28;119483;-77
2022/12/03 01:42:20;;;;;;;9.85;7.18;;;;;;;7.66;62.02;102514.44;4952601;28;119210;-77
2022/12/03 01:44:47;;;;;;;11.82;7.60;;;;;;;7.61;61.60;102509.38;4948869;28;119526;-77
2022/12/03 01:47:15;;;;;;;11.10;6.90;;;;;;;7.61;61.55;102500.38;4942745;28;119612;-78
2022/12/03 01:49:45;;;;;;;10.25;6.68;;;;;;;7.67;61.78;102510.53;4942178;28;119275;-78
2022/12/03 01:52:14;;;;;;;10.05;6.68;;;;;;;7.64;61.48;102505.06;4951169;28;119210;-78
2022/12/03 01:54:51;;;;;;;10.02;6.93;;;;;;;7.58;61.64;102495.69;4949781;28;120187;-78
2022/12/03 01:57:29;;;;;;;10.40;6.57;;;;;;;7.66;61.96;102502.75;4937749;28;119337;-78
2022/12/03 01:59:58;;;;;;;9.13;6.10;;;;;;;7.65;61.43;102498.44;4941535;28;119152;-78
2022/12/03 02:02:27;;;;;;;9.05;6.50;;;;;;;7.67;61.10;102504.31;4946380;28;119898;-77
2022/12/03 02:04:54;;;;;;;11.35;6.38;;;;;;;7.63;61.05;102487.13;4944478;28;119981;-76
2022/12/03 02:07:28;;;;;;;9.48;5.93;;;;;;;7.64;61.11;102494.16;4938187;28;119498;-76
2022/12/03 02:09:56;;;;;;;9.38;6.03;;;;;;;7.70;60.47;102503.53;4949612;28;120176;-75
2022/12/03 02:12:33;;;;;;;8.18;5.90;;;;;;;7.72;60.79;102500.41;4955824;28;119569;-75
2022/12/03 02:14:59;;;;;;;9.07;5.95;;;;;;;7.74;60.38;102507.03;4951041;28;120024;-76
2022/12/03 02:17:26;;;;;;;8.43;5.90;;;;;;;7.66;60.31;102495.31;4938120;28;119548;-78
2022/12/03 02:19:52;;;;;;;8.45;5.78;;;;;;;7.69;60.15;102494.56;4946405;28;119217;-78
2022/12/03 02:22:30;;;;;;;9.88;5.88;;;;;;;7.73;60.22;102491.03;4934415;28;119408;-77
2022/12/03 02:25:30;;;;;;;8.30;6.35;;;;;;;7.70;60.04;102492.59;4940128;28;119092;-76
2022/12/03 02:27:58;;;;;;;7.60;5.68;;;;;;;7.65;60.24;102495.72;4946255;28;119132;-78
2022/12/03 02:30:26;;;;;;;9.38;5.85;;;;;;;7.68;60.21;102497.66;4937131;28;120140;-78
2022/12/03 02:32:53;;;;;;;8.35;5.80;;;;;;;7.62;59.57;102491.81;4936166;28;119142;-78
2022/12/03 02:35:22;;;;;;;9.38;5.80;;;;;;;7.63;59.88;102495.31;4945902;28;119412;-77
2022/12/03 02:37:53;;;;;;;10.55;6.57;;;;;;;7.60;59.86;102488.69;4941096;28;119064;-76
2022/12/03 02:40:21;;;;;;;8.88;6.40;;;;;;;7.61;60.43;102484.00;4942235;28;119377;-77
2022/12/03 02:42:49;;;;;;;11.50;6.43;;;;;;;7.64;60.12;102494.16;4944543;28;119764;-78
2022/12/03 02:45:43;;;;;;;10.73;6.88;;;;;;;7.60;59.77;102485.16;4947028;28;119326;-76
2022/12/03 02:48:24;;;;;;;10.70;6.40;;;;;;;7.57;60.51;102491.38;4943871;28;119825;-78
2022/12/03 02:50:59;;;;;;;10.98;6.88;;;;;;;7.58;59.69;102484.78;4941979;28;119837;-75
2022/12/03 02:53:38;;;;;;;8.23;5.82;;;;;;;7.59;60.24;102483.59;4939137;28;119489;-78
2022/12/03 02:56:04;;;;;;;10.27;7.15;;;;;;;7.59;60.73;102491.81;4933356;28;119241;-77
2022/12/03 02:58:31;;;;;;;10.02;6.68;;;;;;;7.59;60.39;102478.16;4949069;28;119427;-77
2022/12/03 03:00:59;;;;;;;14.07;7.53;;;;;;;7.63;60.04;102489.84;4943324;28;119719;-78
2022/12/03 03:03:28;;;;;;;9.00;6.90;;;;;;;7.58;60.24;102490.25;4933861;28;119723;-78
2022/12/03 03:05:57;;;;;;;10.90;7.90;;;;;;;7.60;59.81;102493.38;4950956;28;120228;-78
2022/12/03 03:08:24;;;;;;;10.98;7.05;;;;;;;7.58;60.05;102491.03;4950103;28;119541;-76
2022/12/03 03:10:51;;;;;;;10.88;7.55;;;;;;;7.58;59.75;102495.69;4951957;28;119803;-78
2022/12/03 03:13:19;;;;;;;11.35;7.85;;;;;;;7.55;60.19;102491.75;4944270;28;119351;-77
2022/12/03 03:15:46;;;;;;;11.50;7.63;;;;;;;7.51;59.94;102495.66;4941306;28;119539;-76
2022/12/03 03:18:13;;;;;;;12.27;7.88;;;;;;;7.45;59.90;102484.34;4954494;28;119876;-76
2022/12/03 03:20:40;;;;;;;13.05;8.85;;;;;;;7.41;60.32;102490.94;4933015;28;119527;-76
2022/12/03 03:23:13;;;;;;;10.13;7.55;;;;;;;7.42;59.67;102489.78;4936312;28;119843;-75
2022/12/03 03:25:42;;;;;;;10.18;7.50;;;;;;;7.38;60.07;102482.38;4951016;28;119394;-76
2022/12/03 03:28:08;;;;;;;12.07;7.95;;;;;;;7.37;60.36;102486.25;4933837;28;119237;-78
2022/12/03 03:30:37;;;;;;;10.65;7.75;;;;;;;7.36;60.21;102492.09;4938667;28;121368;-76
2022/12/03 03:33:03;;;;;;;11.73;8.30;;;;;;;7.30;60.22;102480.75;4958379;28;119873;-76
2022/12/03 03:35:29;;;;;;;9.63;7.93;;;;;;;7.33;60.09;102490.94;4948508;28;120999;-76
2022/12/03 03:37:57;;;;;;;13.90;8.25;;;;;;;7.32;60.51;102483.88;4940657;28;119863;-76
2022/12/03 03:40:24;;;;;;;13.40;8.23;;;;;;;7.33;60.30;102487.38;4948602;28;119854;-76
2022/12/03 03:42:50;;;;;;;13.57;8.85;;;;;;;7.40;60.30;102481.97;4941048;28;120284;-76
2022/12/03 03:45:17;;;;;;;12.30;8.13;;;;;;;7.31;60.12;102471.41;4935888;28;119482;-79
2022/12/03 03:47:43;;;;;;;12.15;7.97;;;;;;;7.28;60.24;102485.81;4935818;28;119572;-77
2022/12/03 03:50:11;;;;;;;11.55;7.95;;;;;;;7.21;60.04;102472.16;4939118;28;120036;-77
2022/12/03 03:52:38;;;;;;;12.38;8.10;;;;;;;7.26;60.29;102476.44;4941648;28;119318;-77
2022/12/03 03:55:05;;;;;;;11.20;8.02;;;;;;;7.26;59.81;102479.19;4947096;28;119515;-78
2022/12/03 03:57:32;;;;;;;14.07;8.52;;;;;;;7.19;59.92;102474.47;4937217;28;119256;-76
2022/12/03 03:59:58;;;;;;;12.07;8.68;;;;;;;7.18;59.96;102475.66;4946311;28;119836;-77
2022/12/03 04:02:25;;;;;;;12.50;7.97;;;;;;;7.22;60.16;102475.66;4937249;28;120928;-76
2022/12/03 04:04:52;;;;;;;9.93;7.68;;;;;;;7.22;60.34;102476.44;4950001;28;119629;-76
2022/12/03 04:07:18;;;;;;;11.70;8.15;;;;;;;7.19;60.49;102468.22;4943490;28;120078;-75
2022/12/03 04:09:44;;;;;;;13.25;8.55;;;;;;;7.24;60.24;102470.59;4942800;28;119861;-76
2022/12/03 04:14:57;;;;;;;13.05;8.65;;;;;;;7.26;60.79;102462.81;4942139;28;119540;-78
2022/12/03 04:17:23;;;;;;;13.70;8.65;;;;;;;7.29;60.49;102464.75;4944842;28;119638;-78
2022/12/03 04:19:49;;;;;;;14.40;8.52;;;;;;;7.30;60.69;102469.84;4943668;28;119357;-75
2022/12/03 04:30:28;;;;;;;13.93;9.07;;;;;;;7.37;61.25;102456.22;4942837;28;119592;-78
2022/12/03 04:35:43;;;;;;;;;;;;;;;7.35;60.73;102458.56;4954366;28;120945;-78
2022/12/03 04:38:11;;;;;;;12.85;9.23;;;;;;;7.29;60.63;102453.84;4953293;28;119780;-78
2022/12/03 04:41:10;;;;;;;13.75;9.32;;;;;;;7.34;60.63;102454.28;4943033;28;119538;-78
2022/12/03 04:43:31;;;;;;;13.52;9.05;;;;;;;7.35;60.85;102461.28;4936453;28;119546;-78
2022/12/03 04:45:57;;;;;;;11.30;8.77;;;;;;;7.33;61.20;102460.09;4953382;28;119562;-77
2022/12/03 04:48:23;;;;;;;12.38;9.02;;;;;;;7.29;61.02;102451.88;4956898;28;119425;-77
2022/12/03 04:50:49;;;;;;;11.50;9.32;;;;;;;7.32;61.06;102448.38;4949106;28;120038;-77
2022/12/03 04:53:15;;;;;;;13.82;9.43;;;;;;;7.37;61.18;102453.50;4951035;28;119503;-78
2022/12/03 04:55:40;;;;;;;13.32;9.50;;;;;;;7.35;61.73;102450.38;4939050;28;119992;-78
2022/12/03 04:58:06;;;;;;;15.40;9.75;;;;;;;7.43;61.60;102444.94;4949303;28;119924;-78
2022/12/03 05:00:32;;;;;;;13.85;9.77;;;;;;;7.43;61.60;102444.94;4942856;28;119518;-77
2022/12/03 05:02:58;;;;;;;12.88;8.95;;;;;;;7.41;61.64;102439.06;4950462;28;119512;-77
2022/12/03 05:05:23;;;;;;;13.70;9.63;;;;;;;7.37;61.52;102431.66;4946573;28;119193;-77
2022/12/03 05:07:49;;;;;;;13.20;10.00;;;;;;;7.45;61.54;102446.09;4948330;28;120249;-77
2022/12/03 05:10:15;;;;;;;16.95;10.00;;;;;;;7.39;61.64;102432.06;4944306;28;119659;-77
2022/12/03 05:12:40;;;;;;;15.15;9.93;;;;;;;7.38;61.75;102446.09;4947254;28;119305;-77
2022/12/03 05:15:06;;;;;;;14.75;10.15;;;;;;;7.35;61.87;102442.19;4952426;28;119258;-78
2022/12/03 05:17:32;;;;;;;15.82;10.38;;;;;;;7.28;62.41;102442.13;4930485;28;119832;-78
2022/12/03 05:22:42;;;;;;;;;;;;;;;7.21;62.81;102439.38;4947814;28;119381;-78
2022/12/03 05:25:08;;;;;;;17.25;11.40;;;;;;;7.15;63.49;102445.59;4946358;28;119972;-76
2022/12/03 05:27:34;;;;;;;16.88;11.73;;;;;;;7.12;63.77;102435.47;4916495;28;120356;-78
2022/12/03 05:30:00;;;;;;;16.63;11.95;;;;;;;7.05;64.11;102445.16;4950290;28;119350;-77
2022/12/03 05:32:26;;;;;;;16.23;11.85;;;;;;;6.96;64.27;102430.31;4944156;28;119246;-78
2022/12/03 05:34:51;;;;;;;14.68;12.18;;;;;;;6.95;65.13;102431.47;4950095;28;120046;-77
2022/12/03 05:37:17;;;;;;;16.98;12.93;;;;;;;6.96;65.48;102427.59;4951999;28;119479;-77
2022/12/03 05:39:43;;;;;;;17.30;13.23;;;;;;;6.93;65.10;102422.91;4946666;28;119544;-78
2022/12/03 05:44:54;;;;;;;19.85;13.13;;;;;;;6.92;65.24;102421.34;4944339;28;120741;-77
2022/12/03 05:47:20;;;;;;;17.00;12.02;;;;;;;6.94;65.81;102421.72;4952113;28;119352;-78
2022/12/03 05:49:46;;;;;;;17.15;12.77;;;;;;;6.92;65.42;102427.56;4952488;28;120549;-77
2022/12/03 05:52:11;;;;;;;16.17;12.57;;;;;;;6.98;65.59;102423.31;4942472;28;119143;-77
2022/12/03 05:54:37;;;;;;;19.02;12.25;;;;;;;6.93;65.36;102414.72;4942571;28;119484;-78
2022/12/03 05:57:03;;;;;;;17.48;12.30;;;;;;;6.91;65.56;102419.78;4945951;28;119555;-77
2022/12/03 05:59:29;;;;;;;15.95;12.75;;;;;;;6.97;65.84;102424.47;4945274;28;119797;-78
2022/12/03 06:01:55;;;;;;;16.50;12.15;;;;;;;6.98;65.28;102415.13;4921841;28;121069;-77
2022/12/03 06:04:20;;;;;;;17.77;12.30;;;;;;;6.99;65.67;102416.69;4945786;28;119711;-77
2022/12/03 06:06:46;;;;;;;15.73;12.13;;;;;;;6.99;65.70;102415.91;4944437;28;119446;-77
2022/12/03 06:09:12;;;;;;;16.45;12.40;;;;;;;7.00;65.40;102415.50;4952250;28;119534;-78
2022/12/03 06:11:39;;;;;;;14.57;12.88;;;;;;;7.01;65.67;102414.34;4951621;28;119547;-77
2022/12/03 06:14:05;;;;;;;16.98;12.20;;;;;;;7.02;65.34;102415.91;4955233;28;119402;-76
2022/12/03 06:16:31;;;;;;;15.88;11.70;;;;;;;7.00;65.28;102412.00;4944237;28;119541;-78
2022/12/03 06:18:56;;;;;;;15.10;12.20;;;;;;;6.92;65.29;102403.03;4944186;28;119431;-78
2022/12/03 06:21:22;;;;;;;15.90;12.68;;;;;;;7.01;65.63;102405.38;4946465;28;119234;-78
2022/12/03 06:23:48;;;;;;;17.45;12.90;;;;;;;7.05;65.98;102409.69;4942927;28;121866;-77
2022/12/03 06:26:14;;;;;;;20.38;13.02;;;;;;;7.07;65.46;102418.28;4941497;28;119576;-77
2022/12/03 06:28:45;;;;;;;15.88;12.82;;;;;;;7.07;65.26;102417.50;4948288;28;119937;-77
2022/12/03 06:31:11;;;;;;;14.88;12.75;;;;;;;7.07;65.40;102418.28;4948967;28;119879;-78
2022/12/03 06:33:37;;;;;;;16.30;12.65;;;;;;;7.04;65.24;102408.13;4927522;28;119694;-78
2022/12/03 06:36:03;;;;;;;15.30;12.60;;;;;;;6.97;65.35;102407.31;4950968;28;120323;-78
2022/12/03 06:38:29;;;;;;;15.20;12.63;;;;;;;6.95;65.00;102404.97;4944447;28;119421;-77
2022/12/03 06:40:55;;;;;;;16.63;13.18;;;;;;;6.97;65.62;102407.31;4943793;28;120793;-77
2022/12/03 06:43:20;;;;;;;19.00;13.70;;;;;;;6.96;65.83;102409.28;4944854;28;121646;-77
2022/12/03 06:45:46;;;;;;;16.55;12.98;;;;;;;6.96;65.33;102422.13;4944508;28;119583;-78
2022/12/03 06:48:12;;;;;;;19.55;13.18;;;;;;;6.89;65.37;102411.19;4940332;28;119331;-76
2022/12/03 06:50:37;;;;;;;20.08;14.05;;;;;;;6.88;65.54;102418.59;4941891;28;120371;-78
2022/12/03 06:53:03;;;;;;;17.08;13.82;;;;;;;6.90;65.40;102412.75;4946747;28;119347;-77
2022/12/03 06:55:29;;;;;;;18.55;13.93;;;;;;;6.87;65.40;102403.38;4947181;28;122011;-76
2022/12/03 06:57:55;;;;;;;18.17;13.63;;;;;;;6.82;65.63;102400.22;4950227;28;120459;-77
2022/12/03 07:00:20;;;;;;;19.80;14.23;;;;;;;6.75;65.60;102404.50;4948483;28;119794;-77
2022/12/03 07:02:46;;;;;;;23.15;14.93;;;;;;;6.74;65.96;102404.88;4947201;28;119281;-77
2022/12/03 07:05:12;;;;;;;20.60;15.05;;;;;;;6.63;65.97;102399.38;4948048;28;119727;-77
2022/12/03 07:07:38;;;;;;;20.55;15.40;;;;;;;6.63;66.62;102404.03;4946301;28;119718;-77
2022/12/03 07:10:04;;;;;;;22.17;16.92;;;;;;;6.63;66.57;102399.38;4945367;28;122750;-76
2022/12/03 07:12:31;;;;;;;22.33;16.65;;;;;;;6.64;67.07;102403.66;4948238;28;119384;-76
2022/12/03 07:14:57;;;;;;;21.52;16.42;;;;;;;6.59;66.98;102398.53;4946076;28;120314;-77
2022/12/03 07:17:23;;;;;;;21.80;16.27;;;;;;;6.55;67.17;102386.84;4947521;28;120071;-77
2022/12/03 07:19:49;;;;;;;20.77;16.73;;;;;;;6.58;67.23;102391.53;4952105;28;119170;-76
2022/12/03 07:22:15;;;;;;;21.02;16.45;;;;;;;6.59;67.58;102397.75;4944807;28;119328;-76
2022/12/03 07:24:41;;;;;;;22.40;15.55;;;;;;;6.59;67.23;102395.03;4946856;28;119526;-77
2022/12/03 07:27:06;;;;;;;20.00;15.90;;;;;;;6.53;66.78;102391.88;4948663;28;119236;-78
2022/12/03 07:29:32;;;;;;;21.88;16.10;;;;;;;6.48;67.31;102384.06;4946227;28;119826;-76
2022/12/03 07:31:58;;;;;;;19.42;16.02;;;;;;;6.53;67.32;102383.72;4945992;28;119650;-77
2022/12/03 07:34:24;;;;;;;22.58;16.45;;;;;;;6.53;67.34;102399.28;4940792;28;119529;-77
2022/12/03 07:36:49;;;;;;;19.23;16.50;;;;;;;6.50;67.58;102389.16;4946527;28;120261;-76
2022/12/03 07:39:15;;;;;;;21.48;16.65;;;;;;;6.49;67.69;102391.09;4948569;28;119330;-76
2022/12/03 07:41:41;;;;;;;21.00;16.50;;;;;;;6.50;67.71;102375.53;4942558;28;119863;-77
2022/12/03 07:44:06;;;;;;;23.45;16.95;;;;;;;6.50;67.59;102379.03;4946067;28;119638;-77
2022/12/03 07:46:32;;;;;;;21.67;17.10;;;;;;;6.55;67.65;102391.50;4943134;28;119378;-78
2022/12/03 07:48:58;;;;;;;22.42;17.15;;;;;;;6.56;67.69;102380.22;4939915;28;119486;-77
2022/12/03 07:51:24;;;;;;;20.30;17.30;;;;;;;6.60;67.74;102394.66;4941377;28;119407;-76
2022/12/03 07:53:49;;;;;;;22.73;17.52;;;;;;;6.60;67.99;102389.19;4928274;28;119646;-77
2022/12/03 07:56:15;;;;;;;21.45;17.02;;;;;;;6.59;67.72;102370.50;4944319;28;120267;-77
2022/12/03 07:58:41;;;;;;;21.40;17.42;;;;;;;6.55;67.43;102375.94;4942498;28;119693;-77
2022/12/03 08:01:07;;;;;;;21.60;17.17;;;;;;;6.57;67.58;102376.34;4945863;28;119670;-76
2022/12/03 08:03:32;;;;;;;21.83;17.73;;;;;;;6.57;67.88;102379.06;4942136;28;119359;-76
2022/12/03 08:05:58;;;;;;;20.65;17.65;;;;;;;6.55;67.78;102375.16;4941796;28;119846;-78
2022/12/03 08:08:24;;;;;;;19.88;16.70;;;;;;;6.60;67.65;102367.38;4943381;28;120327;-77
2022/12/03 08:10:50;;;;;;;25.02;17.65;;;;;;;6.53;67.34;102356.44;4939252;28;119523;-76
2022/12/03 08:13:17;;;;;;;20.85;17.38;;;;;;;6.57;67.61;102365.44;4943011;28;119407;-77
2022/12/03 08:15:42;;;;;;;24.02;17.88;;;;;;;6.49;68.00;102366.56;4944835;28;121002;-76
2022/12/03 08:18:17;;;;;;;19.67;16.83;;;;;;;6.51;67.82;102368.91;4941839;28;119442;-76
2022/12/03 08:20:44;;;;;;;22.85;16.50;;;;;;;6.44;67.76;102366.94;4940762;28;119954;-77
2022/12/03 08:23:22;;;;;;;23.50;17.50;;;;;;;6.44;67.99;102370.44;4944526;28;119734;-78
2022/12/03 08:25:49;;;;;;;21.45;18.38;;;;;;;6.43;68.10;102374.31;4943957;28;119399;-77
2022/12/03 08:28:21;;;;;;;25.52;17.95;;;;;;;6.49;68.33;102368.50;4944970;28;119401;-77
2022/12/03 08:31:10;;;;;;;21.77;18.05;;;;;;;6.45;68.15;102369.28;4945947;28;119373;-76
2022/12/03 08:33:37;;;;;;;23.83;18.45;;;;;;;6.45;68.37;102366.53;4944748;28;119377;-77
2022/12/03 08:36:17;;;;;;;24.15;18.30;;;;;;;6.46;68.58;102367.31;4939786;28;119862;-77
2022/12/03 08:38:50;;;;;;;25.35;19.17;;;;;;;6.44;68.52;102364.19;4941889;28;120123;-76
2022/12/03 08:42:40;;;;;;;15.32;13.68;;;;;;;6.40;68.66;102355.22;4942837;28;120325;-77
2022/12/03 08:44:23;;;;;;;23.35;18.75;;;;;;;6.46;68.40;102373.56;4941202;28;121168;-77
2022/12/03 08:46:56;;;;;;;22.20;18.33;;;;;;;6.44;68.19;102366.94;4944006;28;119285;-77
2022/12/03 08:49:22;;;;;;;25.03;18.97;;;;;;;6.41;68.58;102368.47;4940528;28;119954;-76
2022/12/03 08:51:53;;;;;;;23.00;19.60;;;;;;;6.45;68.74;102357.59;4940992;28;119814;-77
2022/12/03 08:54:20;;;;;;;24.07;20.23;;;;;;;6.52;69.27;102354.88;4942330;28;119456;-77
2022/12/03 08:56:46;;;;;;;23.23;20.00;;;;;;;6.57;69.05;102362.69;4941942;28;119896;-77
2022/12/03 08:59:31;;;;;;;24.27;20.13;;;;;;;6.57;69.27;102340.88;4942195;28;119319;-78
2022/12/03 09:01:58;;;;;;;23.35;18.27;;;;;;;6.60;69.14;102361.16;4940181;28;119775;-77
2022/12/03 09:04:38;;;;;;;22.15;18.75;;;;;;;6.57;68.56;102357.25;4940589;28;120295;-77
2022/12/03 09:07:04;;;;;;;24.80;20.20;;;;;;;6.52;68.63;102357.63;4938168;28;119626;-76
2022/12/03 09:09:30;;;;;;;22.85;19.40;;;;;;;6.52;68.82;102349.44;4945291;28;119769;-77
2022/12/03 09:11:56;;;;;;;23.48;19.70;;;;;;;6.53;69.01;102361.91;4940661;28;119219;-77
2022/12/03 09:14:22;;;;;;;23.02;19.63;;;;;;;6.49;69.15;102352.94;4943499;28;119252;-77
2022/12/03 09:16:50;;;;;;;24.63;20.33;;;;;;;6.49;68.74;102343.97;4941017;28;119642;-77
2022/12/03 09:19:16;;;;;;;27.02;21.48;;;;;;;6.44;69.44;102356.81;4948020;28;119566;-77
2022/12/03 09:21:42;;;;;;;22.50;19.20;;;;;;;6.46;69.26;102357.19;4944423;28;120760;-77
2022/12/03 09:24:08;;;;;;;24.30;20.20;;;;;;;6.41;69.25;102360.28;4947749;28;119694;-77
2022/12/03 09:26:33;;;;;;;22.45;19.65;;;;;;;6.38;69.18;102361.03;4948607;28;119293;-77
2022/12/03 09:28:59;;;;;;;26.00;20.65;;;;;;;6.32;69.34;102350.88;4949540;28;119737;-77
2022/12/03 09:31:25;;;;;;;22.45;19.50;;;;;;;6.29;69.71;102346.19;4946971;28;119757;-77
2022/12/03 09:33:51;;;;;;;25.73;20.63;;;;;;;6.23;69.82;102334.88;4947628;28;119520;-77
2022/12/03 09:36:16;;;;;;;24.80;20.27;;;;;;;6.27;69.63;102343.06;4947692;28;119370;-76
2022/12/03 09:38:42;;;;;;;25.27;20.60;;;;;;;6.30;69.77;102345.81;4944407;28;120100;-78
2022/12/03 09:41:08;;;;;;;24.98;21.88;;;;;;;6.25;70.20;102327.09;4944496;28;119372;-76
2022/12/03 09:43:34;;;;;;;26.13;21.58;;;;;;;6.38;70.25;102336.50;4942875;28;119349;-77
2022/12/03 09:46:01;;;;;;;26.88;21.60;;;;;;;6.38;70.17;102333.78;4947277;28;119454;-77
2022/12/03 09:48:27;;;;;;;26.02;21.42;;;;;;;6.38;69.92;102338.44;4949481;28;119292;-77
2022/12/03 09:50:53;;;;;;;24.92;20.90;;;;;;;6.31;70.25;102331.00;4952194;28;119842;-76
2022/12/03 09:53:24;;;;;;;26.40;21.33;;;;;;;6.32;70.20;102329.06;4948852;28;119291;-77
2022/12/03 09:55:51;;;;;;;24.15;20.60;;;;;;;6.40;70.28;102330.69;4928977;28;121610;-78
2022/12/03 09:58:18;;;;;;;24.95;19.60;;;;;;;6.35;70.34;102317.41;4941381;28;119589;-77
2022/12/03 10:00:49;;;;;;;24.55;20.23;;;;;;;6.38;70.14;102333.78;4943986;28;119739;-77
2022/12/03 10:03:18;;;;;;;26.30;20.60;;;;;;;6.39;69.93;102334.59;4941255;28;122377;-77
2022/12/03 10:05:45;;;;;;;25.13;21.02;;;;;;;6.39;70.09;102324.47;4942692;28;119389;-78
2022/12/03 10:08:17;;;;;;;24.13;19.75;;;;;;;6.43;70.05;102327.97;4939447;28;121865;-77
2022/12/03 10:10:43;;;;;;;24.33;20.25;;;;;;;6.41;70.03;102326.81;4938539;28;120568;-77
2022/12/03 10:13:16;;;;;;;24.23;20.13;;;;;;;6.40;69.48;102327.97;4944274;28;119244;-77
2022/12/03 10:15:42;;;;;;;23.00;19.83;;;;;;;6.33;70.25;102317.00;4942786;28;119891;-77
2022/12/03 10:18:23;;;;;;;21.58;18.83;;;;;;;6.40;70.04;102319.78;4945708;28;119572;-77
2022/12/03 10:20:50;;;;;;;25.30;19.55;;;;;;;6.36;70.08;102313.50;4945247;28;119231;-76
2022/12/03 10:23:24;;;;;;;24.52;20.23;;;;;;;6.43;69.86;102321.75;4943891;28;119931;-78
2022/12/03 10:25:59;;;;;;;23.15;19.17;;;;;;;6.39;69.69;102308.09;4944756;28;119839;-77
2022/12/03 10:28:34;;;;;;;24.08;19.83;;;;;;;6.42;70.40;102307.34;4944523;28;119987;-77
2022/12/03 10:31:01;;;;;;;24.23;19.83;;;;;;;6.40;70.62;102304.22;4942378;28;121122;-77
2022/12/03 10:33:33;;;;;;;25.55;19.83;;;;;;;6.38;70.54;102305.72;4927269;28;119696;-78
2022/12/03 10:36:16;;;;;;;28.08;22.00;;;;;;;6.41;70.63;102310.44;4947169;28;120741;-76
2022/12/03 10:38:42;;;;;;;24.90;20.02;;;;;;;6.44;70.86;102304.22;4945821;28;119565;-78
2022/12/03 10:41:27;;;;;;;25.75;20.17;;;;;;;6.43;70.17;102298.00;4944443;28;119301;-77
2022/12/03 10:43:53;;;;;;;22.88;19.25;;;;;;;6.36;70.34;102292.50;4940964;28;119358;-77
2022/12/03 10:46:20;;;;;;;23.10;19.58;;;;;;;6.39;70.13;102299.16;4944063;28;119574;-77
2022/12/03 10:49:10;;;;;;;22.52;18.67;;;;;;;6.34;69.70;102294.03;4936851;28;119374;-77
2022/12/03 10:51:37;;;;;;;24.13;19.77;;;;;;;6.29;70.41;102280.78;4944718;28;119741;-77
2022/12/03 10:54:10;;;;;;;28.52;20.55;;;;;;;6.31;70.28;102289.34;4944958;28;119571;-77
2022/12/03 10:56:36;;;;;;;23.88;20.05;;;;;;;6.30;70.58;102285.06;4942734;28;119364;-76
2022/12/03 10:59:02;;;;;;;27.55;21.52;;;;;;;6.28;70.52;102274.53;4944684;28;119866;-77
2022/12/03 11:01:27;;;;;;;26.77;21.45;;;;;;;6.30;70.99;102276.88;4940040;28;119649;-77
2022/12/03 11:03:59;;;;;;;27.00;21.92;;;;;;;6.28;71.01;102269.09;4944355;28;119832;-77
2022/12/03 11:06:25;;;;;;;26.77;22.55;;;;;;;6.23;70.35;102269.47;4942114;28;120204;-77
2022/12/03 11:08:52;;;;;;;27.25;22.15;;;;;;;6.31;71.41;102278.44;4944223;28;119750;-78
2022/12/03 11:11:23;;;;;;;27.17;21.50;;;;;;;6.34;71.07;102278.47;4943501;28;119643;-77
2022/12/03 11:13:52;;;;;;;27.77;22.42;;;;;;;6.35;71.10;102260.94;4944830;28;119601;-77
2022/12/03 11:16:39;;;;;;;27.08;22.40;;;;;;;6.45;71.20;102267.63;4942991;28;119398;-78
2022/12/03 11:19:17;;;;;;;27.30;22.27;;;;;;;6.45;71.17;102265.69;4942782;28;120722;-76
2022/12/03 11:22:09;;;;;;;29.85;23.20;;;;;;;6.53;71.11;102268.44;4946556;28;119365;-77
2022/12/03 11:24:36;;;;;;;28.73;21.52;;;;;;;6.55;70.83;102266.88;4937147;28;121195;-77
2022/12/03 11:27:02;;;;;;;28.05;22.52;;;;;;;6.53;70.88;102252.06;4944037;28;119509;-78
2022/12/03 11:30:01;;;;;;;27.17;21.90;;;;;;;6.51;70.16;102252.44;4943329;28;119701;-77
2022/12/03 11:32:41;;;;;;;27.00;21.30;;;;;;;6.50;70.57;102237.25;4918995;28;119615;-78
2022/12/03 11:35:33;;;;;;;28.67;22.67;;;;;;;6.55;71.00;102241.56;4942972;28;120314;-77
2022/12/03 11:38:36;;;;;;;25.65;22.23;;;;;;;6.62;71.02;102247.81;4938063;28;119554;-78
2022/12/03 11:41:11;;;;;;;26.98;21.48;;;;;;;6.58;70.89;102238.84;4942091;28;119555;-76